createdAt,value
2022-10-11T00:00:47.807Z,16.38
2022-10-11T00:03:14.773Z,17.23
2022-10-11T00:05:44.076Z,16.58
2022-10-11T00:08:14.213Z,18.23
2022-10-11T00:10:41.639Z,17.17
2022-10-11T00:13:08.698Z,16.52
2022-10-11T00:15:35.503Z,18.90
2022-10-11T00:18:05.287Z,16.65
2022-10-11T00:20:32.382Z,16.05
2022-10-11T00:22:59.125Z,17.35
2022-10-11T00:25:25.927Z,16.38
2022-10-11T00:27:52.686Z,17.02
2022-10-11T00:30:19.736Z,17.08
2022-10-11T00:32:46.543Z,16.92
2022-10-11T00:35:13.363Z,17.23
2022-10-11T00:37:40.152Z,17.13
2022-10-11T00:40:15.727Z,17.75
2022-10-11T00:42:44.744Z,17.10
2022-10-11T00:45:26.504Z,17.25
2022-10-11T00:48:00.633Z,16.98
2022-10-11T00:50:30.595Z,17.20
2022-10-11T00:53:01.234Z,16.48
2022-10-11T00:55:33.716Z,18.70
2022-10-11T00:58:01.065Z,17.25
2022-10-11T01:00:27.853Z,16.90
2022-10-11T01:02:55.284Z,17.27
2022-10-11T01:05:30.307Z,17.92
2022-10-11T01:08:00.281Z,17.67
2022-10-11T01:10:28.108Z,17.92
2022-10-11T01:13:12.821Z,20.63
2022-10-11T01:15:59.912Z,18.00
2022-10-11T01:18:49.914Z,17.92
2022-10-11T01:21:43.023Z,21.58
2022-10-11T01:24:31.241Z,18.27
2022-10-11T01:27:12.199Z,17.13
2022-10-11T01:29:57.484Z,17.90
2022-10-11T01:32:31.300Z,17.88
2022-10-11T01:35:10.938Z,18.80
2022-10-11T01:37:48.771Z,18.02
2022-10-11T01:40:32.590Z,17.50
2022-10-11T01:43:01.875Z,18.83
2022-10-11T01:45:29.656Z,17.42
2022-10-11T01:48:13.697Z,16.98
2022-10-11T01:50:49.792Z,18.15
2022-10-11T01:53:28.747Z,17.42
2022-10-11T01:56:16.496Z,18.30
2022-10-11T01:58:55.173Z,20.02
2022-10-11T02:01:56.189Z,17.83
2022-10-11T02:04:48.812Z,18.88
2022-10-11T02:07:40.460Z,18.20
2022-10-11T02:10:15.800Z,18.80
2022-10-11T02:12:46.601Z,18.85
2022-10-11T02:15:17.149Z,19.25
2022-10-11T02:17:49.490Z,19.75
2022-10-11T02:20:21.367Z,20.17
2022-10-11T02:22:51.768Z,19.52
2022-10-11T02:25:24.831Z,20.25
2022-10-11T02:27:56.972Z,20.25
2022-10-11T02:30:24.034Z,20.63
2022-10-11T02:32:52.838Z,21.23
2022-10-11T02:35:24.461Z,21.55
2022-10-11T02:38:05.589Z,21.38
2022-10-11T02:43:09.148Z,21.27
2022-10-11T02:45:43.258Z,22.98
2022-10-11T02:48:12.498Z,22.80
2022-10-11T02:50:40.546Z,22.30
2022-10-11T02:53:07.986Z,23.77
2022-10-11T02:55:35.103Z,24.10
2022-10-11T02:58:02.252Z,25.58
2022-10-11T03:00:29.230Z,22.98
2022-10-11T03:02:56.029Z,20.98
2022-10-11T03:05:22.863Z,22.42
2022-10-11T03:07:49.670Z,22.58
2022-10-11T03:10:16.697Z,23.73
2022-10-11T03:12:44.729Z,23.45
2022-10-11T03:15:11.535Z,22.35
2022-10-11T03:17:38.293Z,21.58
2022-10-11T03:20:06.705Z,21.92
2022-10-11T03:22:33.441Z,23.65
2022-10-11T03:25:03.922Z,21.83
2022-10-11T03:27:32.112Z,22.35
2022-10-11T03:29:58.996Z,22.80
2022-10-11T03:32:25.861Z,21.38
2022-10-11T03:34:52.750Z,21.67
2022-10-11T03:37:19.552Z,20.83
2022-10-11T03:39:46.509Z,21.80
2022-10-11T03:42:14.004Z,19.65
2022-10-11T03:44:42.231Z,20.25
2022-10-11T03:47:09.562Z,20.00
2022-10-11T03:49:39.972Z,20.83
2022-10-11T03:52:10.746Z,22.08
2022-10-11T03:54:37.508Z,21.80
2022-10-11T03:57:04.504Z,21.20
2022-10-11T03:59:31.439Z,21.10
2022-10-11T04:01:58.248Z,21.73
2022-10-11T04:04:25.111Z,21.08
2022-10-11T04:06:51.901Z,20.92
2022-10-11T04:09:18.669Z,19.75
2022-10-11T04:11:45.458Z,22.15
2022-10-11T04:14:12.242Z,20.23
2022-10-11T04:16:40.181Z,20.73
2022-10-11T04:19:07.221Z,20.52
2022-10-11T04:21:34.236Z,21.33
2022-10-11T04:24:00.994Z,23.02
2022-10-11T04:26:27.720Z,21.95
2022-10-11T04:28:54.806Z,20.02
2022-10-11T04:31:21.672Z,20.88
2022-10-11T04:33:48.464Z,21.45
2022-10-11T04:36:15.268Z,20.63
2022-10-11T04:38:42.173Z,20.27
2022-10-11T04:41:10.659Z,21.30
2022-10-11T04:43:37.711Z,19.98
2022-10-11T04:46:05.263Z,20.35
2022-10-11T04:48:32.524Z,19.48
2022-10-11T04:50:59.277Z,19.08
2022-10-11T04:53:26.125Z,18.48
2022-10-11T04:56:01.555Z,19.27
2022-10-11T04:58:29.841Z,19.05
2022-10-11T05:00:57.423Z,18.42
2022-10-11T05:03:25.060Z,18.17
2022-10-11T05:05:53.020Z,19.77
2022-10-11T05:08:20.585Z,19.00
2022-10-11T05:11:05.331Z,18.42
2022-10-11T05:13:33.718Z,18.75
2022-10-11T05:16:00.694Z,19.42
2022-10-11T05:18:27.546Z,18.70
2022-10-11T05:21:02.643Z,17.67
2022-10-11T05:23:31.491Z,18.95
2022-10-11T05:25:59.131Z,18.23
2022-10-11T05:28:26.748Z,21.48
2022-10-11T05:30:53.925Z,17.55
2022-10-11T05:33:21.250Z,18.38
2022-10-11T05:35:48.009Z,18.38
2022-10-11T05:38:14.862Z,19.10
2022-10-11T05:40:41.608Z,17.85
2022-10-11T05:43:08.543Z,22.05
2022-10-11T05:45:38.078Z,21.45
2022-10-11T05:48:05.199Z,17.23
2022-10-11T05:50:32.571Z,18.55
2022-10-11T05:52:59.592Z,18.33
2022-10-11T05:55:26.396Z,18.00
2022-10-11T05:57:56.530Z,20.15
2022-10-11T06:00:24.930Z,18.40
2022-10-11T06:02:51.706Z,18.17
2022-10-11T06:05:18.650Z,18.50
2022-10-11T06:07:45.471Z,19.05
2022-10-11T06:10:12.362Z,20.55
2022-10-11T06:12:39.212Z,17.67
2022-10-11T06:15:06.599Z,18.25
2022-10-11T06:17:33.434Z,22.15
2022-10-11T06:20:00.183Z,19.17
2022-10-11T06:22:27.573Z,20.50
2022-10-11T06:24:54.352Z,24.63
2022-10-11T06:27:21.181Z,22.05
2022-10-11T06:29:48.026Z,20.80
2022-10-11T06:32:15.001Z,23.67
2022-10-11T06:34:41.774Z,22.23
2022-10-11T06:37:08.578Z,25.35
2022-10-11T06:39:35.385Z,18.48
2022-10-11T06:42:02.295Z,22.85
2022-10-11T06:44:29.374Z,21.08
2022-10-11T06:46:56.258Z,21.05
2022-10-11T06:49:23.651Z,18.02
2022-10-11T06:51:51.068Z,20.58
2022-10-11T06:54:17.916Z,19.90
2022-10-11T06:56:45.814Z,22.27
2022-10-11T06:59:13.579Z,19.98
2022-10-11T07:01:40.818Z,21.17
2022-10-11T07:04:08.426Z,20.65
2022-10-11T07:06:40.373Z,20.45
2022-10-11T07:09:08.568Z,21.73
2022-10-11T07:11:35.830Z,22.40
2022-10-11T07:14:07.763Z,24.65
2022-10-11T07:16:36.525Z,22.00
2022-10-11T07:19:06.140Z,21.23
2022-10-11T07:21:35.008Z,21.08
2022-10-11T07:24:02.406Z,22.45
2022-10-11T07:26:35.291Z,20.20
2022-10-11T07:29:05.283Z,21.48
2022-10-11T07:31:32.187Z,21.75
2022-10-11T07:33:58.926Z,21.23
2022-10-11T07:36:26.046Z,23.90
2022-10-11T07:38:52.948Z,23.27
2022-10-11T07:41:20.013Z,20.80
2022-10-11T07:43:49.874Z,21.65
2022-10-11T07:46:18.478Z,22.27
2022-10-11T07:48:45.402Z,22.50
2022-10-11T07:51:15.290Z,23.05
2022-10-11T07:53:44.461Z,21.40
2022-10-11T07:56:13.220Z,21.45
2022-10-11T07:58:41.629Z,21.73
2022-10-11T08:01:09.298Z,23.00
2022-10-11T08:03:37.573Z,20.33
2022-10-11T08:06:09.728Z,23.20
2022-10-11T08:08:37.622Z,24.42
2022-10-11T08:11:05.923Z,21.65
2022-10-11T08:13:33.411Z,23.50
2022-10-11T08:16:00.333Z,18.60
2022-10-11T08:18:28.138Z,22.90
2022-10-11T08:20:55.020Z,21.85
2022-10-11T08:23:21.815Z,22.10
2022-10-11T08:25:48.888Z,24.95
2022-10-11T08:28:17.879Z,23.65
2022-10-11T08:30:49.635Z,23.63
2022-10-11T08:33:20.390Z,23.90
2022-10-11T08:35:47.775Z,25.65
2022-10-11T08:38:14.982Z,21.45
2022-10-11T08:40:49.486Z,23.02
2022-10-11T08:43:41.250Z,23.05
2022-10-11T08:46:10.074Z,23.33
2022-10-11T08:48:42.266Z,25.38
2022-10-11T08:51:18.447Z,20.23
2022-10-11T08:53:59.826Z,22.92
2022-10-11T08:56:30.300Z,18.85
2022-10-11T08:59:12.199Z,17.88
2022-10-11T09:01:46.453Z,23.13
2022-10-11T09:04:18.142Z,18.10
2022-10-11T09:07:05.135Z,17.95
2022-10-11T09:09:51.492Z,18.48
2022-10-11T09:12:40.610Z,19.40
2022-10-11T09:15:29.398Z,19.42
2022-10-11T09:18:26.151Z,20.00
2022-10-11T09:21:08.378Z,17.17
2022-10-11T09:24:09.388Z,17.85
2022-10-11T09:26:49.551Z,18.45
2022-10-11T09:29:40.382Z,17.27
2022-10-11T09:32:15.395Z,17.70
2022-10-11T09:34:42.767Z,21.17
2022-10-11T09:37:30.533Z,16.88
2022-10-11T09:40:03.353Z,19.60
2022-10-11T09:42:30.074Z,20.38
2022-10-11T09:44:57.639Z,19.30
2022-10-11T09:47:27.166Z,17.70
2022-10-11T09:49:58.152Z,17.92
2022-10-11T09:54:55.427Z,20.50
2022-10-11T09:57:28.523Z,17.80
2022-10-11T10:00:19.171Z,18.02
2022-10-11T10:02:51.452Z,18.20
2022-10-11T10:05:20.242Z,19.13
2022-10-11T10:08:20.367Z,17.23
2022-10-11T10:11:08.343Z,24.98
2022-10-11T10:13:42.724Z,18.13
2022-10-11T10:16:27.097Z,18.70
2022-10-11T10:19:21.554Z,18.98
2022-10-11T10:21:51.302Z,19.30
2022-10-11T10:24:39.336Z,18.67
2022-10-11T10:27:17.127Z,16.20
2022-10-11T10:29:59.639Z,16.90
2022-10-11T10:32:34.002Z,16.75
2022-10-11T10:35:06.765Z,17.08
2022-10-11T10:37:42.678Z,18.30
2022-10-11T10:40:16.182Z,17.45
2022-10-11T10:42:43.180Z,17.83
2022-10-11T10:45:21.584Z,17.15
2022-10-11T10:48:06.992Z,16.30
2022-10-11T10:50:52.133Z,16.40
2022-10-11T10:53:18.884Z,18.75
2022-10-11T10:56:00.111Z,16.85
2022-10-11T10:58:42.057Z,16.52
2022-10-11T11:01:23.966Z,15.93
2022-10-11T11:04:05.879Z,16.25
2022-10-11T11:06:41.679Z,19.52
2022-10-11T11:09:34.528Z,17.90
2022-10-11T11:12:25.601Z,16.02
2022-10-11T11:17:30.497Z,15.80
2022-10-11T11:20:24.804Z,16.70
2022-10-11T11:23:12.933Z,15.50
2022-10-11T11:25:53.557Z,18.17
2022-10-11T11:28:34.499Z,16.33
2022-10-11T11:33:45.143Z,16.77
2022-10-11T11:36:26.444Z,16.50
2022-10-11T11:39:01.534Z,15.70
2022-10-11T11:41:41.351Z,15.65
2022-10-11T11:44:27.616Z,15.43
2022-10-11T11:47:11.923Z,15.75
2022-10-11T11:50:22.830Z,15.23
2022-10-11T11:55:53.910Z,16.38
2022-10-11T11:58:28.482Z,16.20
2022-10-11T12:01:10.894Z,16.00
2022-10-11T12:03:43.187Z,17.38
2022-10-11T12:06:18.323Z,16.02
2022-10-11T12:08:48.909Z,16.33
2022-10-11T12:11:38.789Z,17.67
2022-10-11T12:14:29.651Z,17.30
2022-10-11T12:17:14.480Z,15.57
2022-10-11T12:19:58.480Z,15.68
2022-10-11T12:22:28.378Z,16.70
2022-10-11T12:25:13.774Z,16.43
2022-10-11T12:27:46.184Z,16.63
2022-10-11T12:30:43.869Z,15.73
2022-10-11T12:33:50.584Z,17.40
2022-10-11T12:36:32.433Z,21.30
2022-10-11T12:39:21.210Z,20.27
2022-10-11T12:41:48.548Z,16.20
2022-10-11T12:44:27.232Z,16.10
2022-10-11T12:46:54.257Z,14.13
2022-10-11T12:49:51.360Z,15.38
2022-10-11T12:52:18.283Z,15.80
2022-10-11T12:55:26.394Z,15.65
2022-10-11T12:58:17.530Z,16.45
2022-10-11T13:01:04.363Z,16.90
2022-10-11T13:03:36.760Z,17.17
2022-10-11T13:06:11.773Z,15.23
2022-10-11T13:08:43.285Z,15.10
2022-10-11T13:11:19.598Z,14.95
2022-10-11T13:13:56.622Z,15.77
2022-10-11T13:16:30.926Z,15.43
2022-10-11T13:19:00.335Z,16.27
2022-10-11T13:21:32.088Z,14.65
2022-10-11T13:24:06.791Z,18.30
2022-10-11T13:26:34.201Z,14.30
2022-10-11T13:29:01.259Z,15.13
2022-10-11T13:31:28.358Z,14.52
2022-10-11T13:33:59.241Z,16.48
2022-10-11T13:36:27.362Z,16.60
2022-10-11T13:38:57.942Z,15.30
2022-10-11T13:41:30.499Z,15.00
2022-10-11T13:43:59.582Z,14.07
2022-10-11T13:46:28.182Z,14.27
2022-10-11T13:49:21.290Z,15.90
2022-10-11T13:51:59.019Z,15.63
2022-10-11T13:54:48.774Z,13.18
2022-10-11T13:57:15.653Z,13.75
2022-10-11T13:59:44.057Z,13.80
2022-10-11T14:02:22.464Z,13.20
2022-10-11T14:04:50.073Z,13.27
2022-10-11T14:07:31.726Z,12.85
2022-10-11T14:09:59.238Z,12.27
2022-10-11T14:12:25.995Z,13.30
2022-10-11T14:14:53.075Z,12.10
2022-10-11T14:17:23.101Z,13.20
2022-10-11T14:20:13.643Z,13.40
2022-10-11T14:22:40.441Z,12.57
2022-10-11T14:25:07.283Z,13.88
2022-10-11T14:27:34.080Z,13.90
2022-10-11T14:30:23.989Z,13.98
2022-10-11T14:32:50.106Z,14.43
2022-10-11T14:35:28.406Z,16.17
2022-10-11T14:37:55.346Z,12.40
2022-10-11T14:40:24.625Z,17.77
2022-10-11T14:42:52.014Z,13.93
2022-10-11T14:45:21.171Z,11.82
2022-10-11T14:47:48.364Z,12.93
2022-10-11T14:50:36.818Z,12.63
2022-10-11T14:53:05.905Z,13.70
2022-10-11T14:55:33.117Z,15.48
2022-10-11T14:58:00.013Z,15.25
2022-10-11T15:00:28.476Z,14.13
2022-10-11T15:02:55.856Z,13.88
2022-10-11T15:05:27.741Z,13.63
2022-10-11T15:07:59.790Z,17.05
2022-10-11T15:10:30.759Z,15.93
2022-10-11T15:12:57.713Z,13.77
2022-10-11T15:15:26.737Z,15.13
2022-10-11T15:17:57.116Z,15.18
2022-10-11T15:20:33.342Z,12.32
2022-10-11T15:23:01.048Z,14.45
2022-10-11T15:25:29.164Z,13.55
2022-10-11T15:27:59.385Z,14.48
2022-10-11T15:30:30.228Z,13.32
2022-10-11T15:32:57.590Z,14.32
2022-10-11T15:35:25.313Z,14.55
2022-10-11T15:37:54.159Z,13.30
2022-10-11T15:40:28.411Z,15.02
2022-10-11T15:42:55.225Z,12.77
2022-10-11T15:45:23.533Z,13.20
2022-10-11T15:47:50.693Z,13.98
2022-10-11T15:50:33.694Z,13.65
2022-10-11T15:53:01.685Z,13.38
2022-10-11T15:55:29.354Z,13.40
2022-10-11T15:57:56.211Z,13.10
2022-10-11T16:00:26.066Z,12.63
2022-10-11T16:02:53.674Z,13.20
2022-10-11T16:05:21.837Z,13.70
2022-10-11T16:07:48.711Z,12.73
2022-10-11T16:10:15.915Z,13.30
2022-10-11T16:12:43.127Z,13.38
2022-10-11T16:15:10.777Z,13.50
2022-10-11T16:17:37.852Z,15.43
2022-10-11T16:20:06.857Z,14.40
2022-10-11T16:22:36.598Z,13.50
2022-10-11T16:25:05.072Z,14.48
2022-10-11T16:27:32.891Z,13.73
2022-10-11T16:30:00.608Z,16.83
2022-10-11T16:32:28.167Z,15.65
2022-10-11T16:34:55.054Z,14.50
2022-10-11T16:37:21.843Z,13.90
2022-10-11T16:39:48.618Z,14.35
2022-10-11T16:42:15.510Z,14.55
2022-10-11T16:44:42.315Z,14.85
2022-10-11T16:47:09.396Z,16.42
2022-10-11T16:49:36.529Z,14.80
2022-10-11T16:52:04.640Z,19.33
2022-10-11T16:54:32.474Z,23.55
2022-10-11T16:57:00.155Z,23.80
2022-10-11T16:59:27.362Z,20.63
2022-10-11T17:01:54.294Z,17.58
2022-10-11T17:04:21.926Z,17.08
2022-10-11T17:06:49.063Z,17.02
2022-10-11T17:09:16.425Z,15.73
2022-10-11T17:11:43.687Z,14.65
2022-10-11T17:14:14.414Z,14.50
2022-10-11T17:16:44.275Z,14.82
2022-10-11T17:19:13.513Z,13.65
2022-10-11T17:21:42.697Z,15.13
2022-10-11T17:24:10.070Z,14.60
2022-10-11T17:26:36.868Z,14.27
2022-10-11T17:29:04.133Z,14.93
2022-10-11T17:31:31.033Z,17.15
2022-10-11T17:34:00.115Z,16.08
2022-10-11T17:36:34.800Z,16.77
2022-10-11T17:39:09.541Z,14.75
2022-10-11T17:41:36.843Z,14.65
2022-10-11T17:44:03.778Z,14.52
2022-10-11T17:46:32.914Z,13.80
2022-10-11T17:49:01.776Z,14.40
2022-10-11T17:51:28.745Z,14.77
2022-10-11T17:53:55.468Z,13.38
2022-10-11T17:56:29.581Z,15.98
2022-10-11T17:58:59.066Z,16.55
2022-10-11T18:01:28.277Z,17.90
2022-10-11T18:04:00.249Z,15.38
2022-10-11T18:06:30.907Z,18.05
2022-10-11T18:09:01.011Z,17.67
2022-10-11T18:11:28.019Z,14.23
2022-10-11T18:14:10.114Z,14.68
2022-10-11T18:16:38.673Z,15.10
2022-10-11T18:19:11.441Z,14.65
2022-10-11T18:21:40.025Z,13.40
2022-10-11T18:24:11.796Z,13.07
2022-10-11T18:26:39.747Z,13.63
2022-10-11T18:29:06.877Z,12.95
2022-10-11T18:31:35.374Z,15.52
2022-10-11T18:34:04.260Z,19.63
2022-10-11T18:36:31.931Z,18.52
2022-10-11T18:39:03.018Z,19.17
2022-10-11T18:44:06.677Z,14.82
2022-10-11T18:46:34.053Z,15.63
2022-10-11T18:49:02.183Z,15.18
2022-10-11T18:51:34.457Z,15.32
2022-10-11T18:54:04.391Z,15.25
2022-10-11T18:56:32.364Z,14.18
2022-10-11T18:59:00.320Z,14.25
2022-10-11T19:01:33.783Z,13.70
2022-10-11T19:04:04.771Z,16.38
2022-10-11T19:06:34.937Z,15.80
2022-10-11T19:09:06.430Z,16.83
2022-10-11T19:11:33.341Z,16.13
2022-10-11T19:14:21.156Z,19.45
2022-10-11T19:16:52.303Z,14.30
2022-10-11T19:19:23.696Z,12.68
2022-10-11T19:21:54.263Z,13.93
2022-10-11T19:24:23.773Z,13.05
2022-10-11T19:26:52.944Z,13.98
2022-10-11T19:29:22.971Z,15.32
2022-10-11T19:31:56.094Z,15.38
2022-10-11T19:34:31.763Z,15.50
2022-10-11T19:37:01.063Z,15.30
2022-10-11T19:39:28.727Z,15.00
2022-10-11T19:41:55.747Z,20.13
2022-10-11T19:44:22.590Z,15.73
2022-10-11T19:46:51.881Z,17.50
2022-10-11T19:49:21.658Z,16.65
2022-10-11T19:51:48.552Z,15.98
2022-10-11T19:54:15.966Z,17.65
2022-10-11T19:56:43.536Z,14.73
2022-10-11T19:59:12.458Z,14.52
2022-10-11T20:01:40.057Z,13.93
2022-10-11T20:04:09.279Z,14.35
2022-10-11T20:06:40.096Z,14.50
2022-10-11T20:11:55.738Z,18.58
2022-10-11T20:14:22.664Z,13.35
2022-10-11T20:16:50.307Z,15.25
2022-10-11T20:19:17.396Z,17.42
2022-10-11T20:21:45.115Z,14.55
2022-10-11T20:24:12.281Z,14.25
2022-10-11T20:26:39.540Z,14.38
2022-10-11T20:29:07.101Z,14.63
2022-10-11T20:31:38.249Z,14.27
2022-10-11T20:34:07.323Z,15.73
2022-10-11T20:36:36.276Z,14.43
2022-10-11T20:39:04.628Z,15.25
2022-10-11T20:41:34.208Z,14.52
2022-10-11T20:44:02.218Z,14.98
2022-10-11T20:46:33.560Z,15.55
2022-10-11T20:49:06.260Z,14.18
2022-10-11T20:51:36.165Z,14.20
2022-10-11T20:54:04.962Z,14.48
2022-10-11T20:56:31.788Z,17.17
2022-10-11T20:58:58.695Z,14.55
2022-10-11T21:01:28.374Z,16.13
2022-10-11T21:03:58.151Z,13.60
2022-10-11T21:06:25.753Z,13.48
2022-10-11T21:08:54.892Z,16.23
2022-10-11T21:11:21.783Z,14.68
2022-10-11T21:13:48.610Z,15.07
2022-10-11T21:16:16.398Z,14.82
2022-10-11T21:18:43.233Z,14.40
2022-10-11T21:21:14.285Z,14.80
2022-10-11T21:26:10.400Z,14.57
2022-10-11T21:28:38.458Z,14.93
2022-10-11T21:31:06.945Z,13.95
2022-10-11T21:33:34.746Z,15.25
2022-10-11T21:36:09.754Z,14.68
2022-10-11T21:38:36.802Z,14.23
2022-10-11T21:41:06.936Z,14.70
2022-10-11T21:43:35.832Z,14.87
2022-10-11T21:46:15.155Z,12.98
2022-10-11T21:48:41.970Z,14.77
2022-10-11T21:51:15.714Z,14.30
2022-10-11T21:53:42.574Z,14.05
2022-10-11T21:56:09.444Z,14.23
2022-10-11T21:58:36.233Z,13.68
2022-10-11T22:01:05.059Z,14.07
2022-10-11T22:03:32.718Z,13.95
2022-10-11T22:06:03.727Z,14.02
2022-10-11T22:11:00.224Z,18.17
2022-10-11T22:13:29.341Z,15.68
2022-10-11T22:15:57.429Z,14.25
2022-10-11T22:18:25.363Z,17.88
2022-10-11T22:20:53.396Z,15.05
2022-10-11T22:23:21.038Z,13.75
2022-10-11T22:25:51.570Z,15.20
2022-10-11T22:28:19.410Z,16.52
2022-10-11T22:30:50.583Z,14.27
2022-10-11T22:35:53.563Z,14.10
2022-10-11T22:38:24.253Z,14.80
2022-10-11T22:40:56.077Z,14.27
2022-10-11T22:43:23.851Z,13.65
2022-10-11T22:45:51.563Z,14.38
2022-10-11T22:48:19.465Z,14.32
2022-10-11T22:50:53.119Z,14.07
2022-10-11T22:53:21.118Z,15.85
2022-10-11T22:55:48.879Z,14.48
2022-10-11T22:58:17.772Z,15.52
2022-10-11T23:00:45.179Z,14.15
2022-10-11T23:03:14.248Z,14.13
2022-10-11T23:05:42.175Z,17.23
2022-10-11T23:08:10.134Z,13.40
2022-10-11T23:10:40.853Z,13.55
2022-10-11T23:13:08.757Z,13.45
2022-10-11T23:15:50.396Z,14.30
2022-10-11T23:18:20.516Z,13.07
2022-10-11T23:20:48.267Z,13.10
2022-10-11T23:23:20.938Z,15.55
2022-10-11T23:25:48.081Z,19.30
2022-10-11T23:28:15.078Z,13.32
2022-10-11T23:30:43.686Z,13.25
2022-10-11T23:33:10.949Z,12.48
2022-10-11T23:35:38.375Z,12.90
2022-10-11T23:38:05.258Z,13.18
2022-10-11T23:40:32.404Z,14.35
2022-10-11T23:42:59.574Z,16.40
2022-10-11T23:45:26.837Z,14.05
2022-10-11T23:47:53.980Z,13.93
2022-10-11T23:50:21.038Z,13.68
2022-10-11T23:52:48.414Z,13.77
2022-10-11T23:55:15.484Z,13.52
2022-10-11T23:57:42.513Z,14.25
